Time;durP1;ratioP1;P1;durP2;ratioP2;P2;SDS_P1;SDS_P2;PMS_P1;PMS_P2;Temp;Humidity;BMP_temperature;BMP_pressure;BME280_temperature;BME280_humidity;BME280_pressure;Samples;Min_cycle;Max_cycle;Signal;HPM_P1;HPM_P2
2023/10/10 05:23:47;;;;;;;;;;;;;;;3.67;100.00;100253.25;1809475;78;20122;-68
2023/10/10 05:26:14;;;;;;;;;;;;;;;3.76;100.00;100250.89;1810962;78;20101;-70
2023/10/10 05:28:45;;;;;;;;;;;;;;;3.85;100.00;100260.53;1779075;78;20168;-67
2023/10/10 05:31:11;;;;;;;;;;;;;;;3.95;100.00;100261.15;1810845;78;20153;-69
2023/10/10 05:36:13;;;;;;;;;;;;;;;4.14;100.00;100258.92;1810665;78;20128;-71
2023/10/10 05:38:42;;;;;;;;;;;;;;;4.25;100.00;100271.09;1816222;78;20130;-72
2023/10/10 05:41:10;;;;;;;;;;;;;;;4.35;100.00;100271.26;1824786;78;20114;-72
2023/10/10 05:43:37;;;;;;;;;;;;;;;4.44;100.00;100268.41;1809309;78;20162;-70
2023/10/10 05:46:04;;;;;;;;;;;;;;;4.53;100.00;100275.89;1799458;79;20166;-71
2023/10/10 05:48:35;;;;;;;;;;;;;;;4.59;100.00;100269.72;1804919;78;20528;-71
2023/10/10 05:51:03;;;;;;;;;;;;;;;4.65;100.00;100277.30;1811586;78;20096;-68
2023/10/10 05:53:33;;;;;;;;;;;;;;;4.71;100.00;100273.70;1802916;78;20171;-71
2023/10/10 05:56:15;;;;;;;;;;;;;;;4.76;100.00;100273.98;1806681;78;20143;-72
2023/10/10 05:58:44;;;;;;;;;;;;;;;4.82;100.00;100273.77;1810089;78;20148;-76
2023/10/10 06:01:14;;;;;;;;;;;;;;;4.90;100.00;100274.40;1824074;78;20268;-71
2023/10/10 06:03:42;;;;;;;;;;;;;;;4.98;100.00;100272.45;1813513;78;20493;-66
2023/10/10 06:06:12;;;;;;;;;;;;;;;5.07;100.00;100279.52;1806511;78;20112;-71
2023/10/10 06:08:53;;;;;;;;;;;;;;;5.15;100.00;100283.58;1800488;78;20229;-71
2023/10/10 06:21:18;;;;;;;;;;;;;;;5.49;100.00;100287.70;1781382;79;20108;-72
2023/10/10 06:23:45;;;;;;;;;;;;;;;5.54;100.00;100287.11;1787654;79;20090;-75
2023/10/10 06:28:47;;;;;;;;;;;;;;;5.70;100.00;100296.05;1798646;79;20524;-71
2023/10/10 06:31:17;;;;;;;;;;;;;;;5.77;100.00;100297.98;1792219;79;20121;-71
2023/10/10 06:33:43;;;;;;;;;;;;;;;5.82;100.00;100294.36;1779342;79;20097;-68
2023/10/10 06:41:54;;;;;;;;;;;;;;;5.97;100.00;100305.53;1800496;79;20423;-73
2023/10/10 06:44:32;;;;;;;;;;;;;;;6.01;100.00;100307.09;1793941;79;20132;-75
2023/10/10 06:49:47;;;;;;;;;;;;;;;6.14;100.00;100293.77;1788277;79;21046;-70
2023/10/10 06:52:18;;;;;;;;;;;;;;;6.24;100.00;100301.62;1793094;79;20152;-69
2023/10/10 06:54:44;;;;;;;;;;;;;;;6.32;100.00;100300.46;1780355;79;20132;-74
2023/10/10 07:04:55;;;;;;;;;;;;;;;6.62;100.00;100303.70;1795147;79;20121;-74
2023/10/10 07:07:26;;;;;;;;;;;;;;;6.74;100.00;100309.35;1793211;79;20121;-72
2023/10/10 07:09:57;;;;;;;;;;;;;;;6.84;100.00;100305.50;1787725;79;20429;-73
2023/10/10 07:12:20;;;;;;;;;;;;;;;6.93;100.00;100302.59;1798361;79;20136;-72
2023/10/10 07:14:54;;;;;;;;;;;;;;;7.03;100.00;100302.65;1802769;79;20167;-72
2023/10/10 07:22:18;;;;;;;;;;;;;;;7.48;100.00;100314.75;1797068;79;20135;-73
2023/10/10 07:24:44;;;;;;;;;;;;;;;7.73;100.00;100308.98;1761404;80;20173;-73
2023/10/10 07:27:11;;;;;;;;;;;;;;;7.99;100.00;100309.23;1758614;80;20118;-73
2023/10/10 07:32:17;;;;;;;;;;;;;;;8.55;100.00;100315.09;1760568;80;20181;-75
2023/10/10 07:34:51;;;;;;;;;;;;;;;8.89;100.00;100313.14;1722779;80;20202;-66
2023/10/10 07:37:27;;;;;;;;;;;;;;;9.07;98.89;100309.73;1779615;80;20100;-71
2023/10/10 07:40:19;;;;;;;;;;;;;;;9.12;96.28;100316.02;1747650;82;20162;-68
2023/10/10 07:42:37;;;;;;;;;;;;;;;9.13;94.65;100315.95;1747358;81;20393;-72
2023/10/10 07:45:15;;;;;;;;;;;;;;;9.16;93.61;100314.51;1736824;81;20105;-71
2023/10/10 07:50:36;;;;;;;;;;;;;;;9.19;92.54;100314.38;1757764;81;20153;-70
2023/10/10 07:53:05;;;;;;;;;;;;;;;9.21;91.48;100311.22;1749679;81;20430;-67
2023/10/10 08:00:39;;;;;;;;;;;;;;;9.37;91.34;100325.66;1740695;81;20133;-72
2023/10/10 08:03:19;;;;;;;;;;;;;;;9.50;90.81;100325.93;1764138;81;20102;-69
2023/10/10 08:05:39;;;;;;;;;;;;;;;9.61;89.75;100330.14;1748165;81;20119;-67
2023/10/10 08:08:13;;;;;;;;;;;;;;;9.66;88.64;100323.81;1737562;81;20443;-73
2023/10/10 08:10:40;;;;;;;;;;;;;;;9.70;87.66;100334.91;1739981;81;20109;-70
2023/10/10 08:13:09;;;;;;;;;;;;;;;9.75;87.33;100334.23;1733308;82;20156;-68
2023/10/10 08:15:48;;;;;;;;;;;;;;;9.80;86.03;100338.77;1745174;81;20393;-73
2023/10/10 08:18:07;;;;;;;;;;;;;;;9.75;84.82;100335.53;1739669;81;20448;-71
2023/10/10 08:23:11;;;;;;;;;;;;;;;9.78;85.42;100343.20;1746435;81;20149;-72
2023/10/10 08:25:44;;;;;;;;;;;;;;;9.91;85.41;100345.59;1739781;82;20166;-68
2023/10/10 08:28:11;;;;;;;;;;;;;;;9.93;83.53;100333.36;1740639;81;20093;-70
2023/10/10 08:30:38;;;;;;;;;;;;;;;9.86;82.74;100349.34;1747898;82;20133;-70
2023/10/10 08:35:38;;;;;;;;;;;;;;;9.74;82.39;100340.81;1730910;82;20443;-70
2023/10/10 08:38:13;;;;;;;;;;;;;;;9.66;82.21;100347.21;1735704;82;20136;-73
2023/10/10 08:48:16;;;;;;;;;;;;;;;9.65;83.12;100368.93;1718565;82;20095;-72
2023/10/10 08:50:48;;;;;;;;;;;;;;;9.66;81.87;100377.57;1738715;82;20159;-69
2023/10/10 08:53:15;;;;;;;;;;;;;;;9.50;81.17;100366.22;1740527;81;20410;-69
2023/10/10 08:55:41;;;;;;;;;;;;;;;9.42;81.78;100375.67;1766440;81;20539;-70
2023/10/10 08:58:08;;;;;;;;;;;;;;;9.36;81.57;100372.89;1763580;81;20102;-70
2023/10/10 09:13:04;;;;;;;;;;;;;;;9.50;81.51;100370.13;1731568;81;20105;-73
2023/10/10 09:15:33;;;;;;;;;;;;;;;9.49;81.28;100372.33;1726729;82;20184;-69
2023/10/10 09:20:45;;;;;;;;;;;;;;;9.63;80.93;100366.86;1713767;82;20581;-72
2023/10/10 09:23:32;;;;;;;;;;;;;;;9.71;80.27;100374.30;1730069;81;20095;-68
2023/10/10 09:26:19;;;;;;;;;;;;;;;9.78;79.52;100374.86;1732387;81;20107;-68
2023/10/10 09:28:46;;;;;;;;;;;;;;;9.86;78.47;100372.28;1734297;81;20162;-70
2023/10/10 09:31:26;;;;;;;;;;;;;;;9.86;77.61;100374.89;1734499;82;20109;-70
2023/10/10 09:33:55;;;;;;;;;;;;;;;9.86;77.21;100374.89;1730092;81;20105;-73
2023/10/10 09:36:57;;;;;;;;;;;;;;;9.81;76.38;100379.46;1739524;82;20162;-71
2023/10/10 09:39:26;;;;;;;;;;;;;;;9.72;76.04;100380.34;1731463;81;21046;-70
2023/10/10 09:44:30;;;;;;;;;;;;;;;9.45;76.22;100385.92;1734311;82;20087;-70
2023/10/10 09:57:26;;;;;;;;;;;;;;;9.39;75.89;100398.35;1734176;81;20189;-71
2023/10/10 09:59:56;;;;;;;;;;;;;;;9.42;75.45;100390.42;1737844;81;20308;-73
2023/10/10 10:02:40;;;;;;;;;;;;;;;9.46;75.02;100396.71;1725119;82;20158;-75
2023/10/10 10:04:48;;;;;;;;;;;;;;;9.48;74.79;100390.14;1720368;82;20169;-71
2023/10/10 10:07:27;;;;;;;;;;;;;;;9.48;74.42;100398.78;1733829;82;20155;-71
2023/10/10 10:10:11;;;;;;;;;;;;;;;9.50;74.35;100402.61;1755555;81;20130;-67
2023/10/10 10:13:02;;;;;;;;;;;;;;;9.49;74.04;100397.03;1736885;81;20142;-68
2023/10/10 10:18:44;;;;;;;;;;;;;;;9.54;74.84;100407.61;1747045;82;20154;-67
2023/10/10 10:23:55;;;;;;;;;;;;;;;9.62;73.69;100409.83;1753820;82;20166;-71
2023/10/10 10:26:22;;;;;;;;;;;;;;;9.63;73.72;100411.05;1744042;82;20165;-67
2023/10/10 10:28:41;;;;;;;;;;;;;;;9.69;74.03;100407.34;1752528;82;20155;-71
2023/10/10 10:31:27;;;;;;;;;;;;;;;9.78;73.72;100406.07;1751921;82;20099;-70
2023/10/10 10:34:07;;;;;;;;;;;;;;;9.83;73.33;100408.84;1751001;82;20091;-68
2023/10/10 10:36:45;;;;;;;;;;;;;;;9.87;72.85;100407.78;1749756;82;20100;-72
2023/10/10 10:39:26;;;;;;;;;;;;;;;9.90;72.08;100409.40;1767579;81;20124;-71
2023/10/10 10:41:54;;;;;;;;;;;;;;;9.91;71.54;100413.23;1756105;81;20134;-72
2023/10/10 10:44:47;;;;;;;;;;;;;;;9.93;71.00;100420.50;1746113;82;20189;-68
2023/10/10 10:47:46;;;;;;;;;;;;;;;9.95;70.59;100419.98;1757967;80;20374;-70
2023/10/10 11:03:16;;;;;;;;;;;;;;;9.78;67.92;100431.62;1757393;81;20836;-66
2023/10/10 11:05:44;;;;;;;;;;;;;;;9.78;67.87;100422.97;1747095;82;20498;-67
2023/10/10 11:15:49;;;;;;;;;;;;;;;9.82;66.61;100438.82;1753073;82;20401;-72
2023/10/10 11:18:24;;;;;;;;;;;;;;;9.86;66.41;100448.17;1741327;81;20129;-71
2023/10/10 11:20:57;;;;;;;;;;;;;;;9.88;66.01;100437.24;1743717;81;20392;-67
2023/10/10 11:23:41;;;;;;;;;;;;;;;9.79;65.65;100453.27;1745648;81;20107;-70
2023/10/10 11:26:00;;;;;;;;;;;;;;;9.63;66.18;100451.36;1749867;81;20136;-71
2023/10/10 11:28:39;;;;;;;;;;;;;;;9.54;66.36;100455.70;1737924;81;20109;-72
2023/10/10 11:31:12;;;;;;;;;;;;;;;9.45;66.62;100459.16;1734537;81;20095;-72
2023/10/10 11:34:09;;;;;;;;;;;;;;;9.41;66.94;100464.95;1741101;81;20132;-71
2023/10/10 11:36:29;;;;;;;;;;;;;;;9.40;67.06;100463.27;1740442;81;20434;-72
2023/10/10 11:39:15;;;;;;;;;;;;;;;9.47;67.54;100467.73;1737101;82;20135;-72
2023/10/10 11:49:25;;;;;;;;;;;;;;;9.68;66.48;100471.50;1745938;81;20148;-74
2023/10/10 11:51:53;;;;;;;;;;;;;;;9.60;66.11;100478.80;1743062;81;20095;-73
2023/10/10 12:02:29;;;;;;;;;;;;;;;8.81;67.46;100482.70;1746044;81;20411;-71
2023/10/10 12:04:52;;;;;;;;;;;;;;;8.76;68.45;100480.33;1746024;81;20170;-76
2023/10/10 12:07:24;;;;;;;;;;;;;;;8.82;68.99;100477.91;1752715;81;20105;-73
2023/10/10 12:10:07;;;;;;;;;;;;;;;8.90;68.85;100488.83;1751256;81;20103;-71
2023/10/10 12:12:24;;;;;;;;;;;;;;;9.00;68.11;100492.73;1745744;81;20376;-71
2023/10/10 12:14:52;;;;;;;;;;;;;;;9.06;68.02;100492.47;1746569;81;20210;-71
2023/10/10 12:17:20;;;;;;;;;;;;;;;9.19;68.11;100495.40;1740801;81;20169;-72
2023/10/10 12:19:47;;;;;;;;;;;;;;;9.34;67.92;100501.21;1750510;81;20110;-70
2023/10/10 12:22:17;;;;;;;;;;;;;;;9.43;66.66;100495.62;1748166;81;20143;-72
2023/10/10 12:24:44;;;;;;;;;;;;;;;9.44;65.11;100493.86;1750743;81;20230;-67
2023/10/10 12:27:13;;;;;;;;;;;;;;;9.40;64.47;100507.45;1748075;81;20136;-73
2023/10/10 12:29:40;;;;;;;;;;;;;;;9.31;63.38;100508.69;1749856;81;20101;-73
2023/10/10 12:32:15;;;;;;;;;;;;;;;9.16;63.13;100508.52;1750254;81;20135;-73
2023/10/10 12:34:43;;;;;;;;;;;;;;;9.05;63.67;100515.47;1750656;81;20135;-72
2023/10/10 12:42:12;;;;;;;;;;;;;;;8.95;64.25;100510.25;1751587;81;20138;-73
2023/10/10 12:44:47;;;;;;;;;;;;;;;8.90;63.40;100526.03;1748580;81;20140;-69
2023/10/10 12:47:10;;;;;;;;;;;;;;;8.78;62.90;100523.95;1746748;81;20139;-70
2023/10/10 12:49:44;;;;;;;;;;;;;;;8.68;63.16;100527.38;1750496;81;20154;-76
2023/10/10 12:52:20;;;;;;;;;;;;;;;8.66;63.38;100525.30;1746173;81;20162;-72
2023/10/10 12:54:57;;;;;;;;;;;;;;;8.64;63.29;100526.27;1748670;81;20532;-75
2023/10/10 12:57:26;;;;;;;;;;;;;;;8.66;62.81;100525.75;1746211;81;20241;-70
